PWSweather.com
Personal Weather Stations
Station Observations
KTNBARTL6
Rockyford Subdivision, Bartlett, TN 38002

Rockyford SubdivisionBartlett, TN 38002

Lat: 35.2684679, Lon: -89.8370406

Elevation: 260

Station Type: Davis Vantage Pro2 Wireless

http://www.memphisweather.net/wxlive.shtml

Latest ConditionsUpdated 9:14:58 PM CDT Monday, Mar 27, 2017
Currently Today's Max Today's Min Today's Average
Temperature 65.5°F18.6°C 81.5°F27.5°C 57.3°F14.1°C 69.7°F20.9°C
Dew Point 60.5°F15.8°C 66.9°F19.4°C 53.8°F12.1°C 61.2°F16.2°C
Winds Calm Calm 12.0 mph S19.3 kmh S - 2.8 mph 4.5 kmh
Wind Gusts 2.0 mph3.2 kmh 21.0 mph33.8 kmh - -
Humidity 84% 90% 57% 75%
Pressure 29.86 in1011.2 mb 29.93 in1013.5 mb 29.74 in1007.1 mb -
Hour Temp Dew Point Humidity Winds Wind Gusts Pressure Precip Precip Rate Daily Precip Total
09:14 PM 65.5°F18.6°C 60.5°F15.8°C 84% Calm Calm 2.0 mph3.2 kmh 29.86 in1011.2 mb 0.00 in0.0 mm 0.00 in0.0 mm 0.01 in0.3 mm
09:05 PM 65.7°F18.7°C 60.4°F15.8°C 83% Calm Calm 2.0 mph3.2 kmh 29.86 in1011.2 mb 0.00 in0.0 mm 0.00 in0.0 mm 0.01 in0.3 mm
08:55 PM 65.9°F18.8°C 60.6°F15.9°C 83% Calm Calm 1.0 mph1.6 kmh 29.85 in1010.8 mb 0.00 in0.0 mm 0.00 in0.0 mm 0.01 in0.3 mm
08:34 PM 66.4°F19.1°C 60.7°F15.9°C 82% 2.0 mph NNW3.2 kmh NNW 2.0 mph3.2 kmh 29.84 in1010.5 mb 0.00 in0.0 mm 0.00 in0.0 mm 0.01 in0.3 mm
08:25 PM 66.7°F19.3°C 61.0°F16.1°C 82% Calm Calm 2.0 mph3.2 kmh 29.84 in1010.5 mb 0.00 in0.0 mm 0.00 in0.0 mm 0.01 in0.3 mm
08:14 PM 67.0°F19.4°C 61.0°F16.1°C 81% 5.0 mph N8.0 kmh N 5.0 mph8.0 kmh 29.83 in1010.2 mb 0.00 in0.0 mm 0.00 in0.0 mm 0.01 in0.3 mm
08:05 PM 67.5°F19.7°C 61.8°F16.6°C 82% 2.0 mph NNE3.2 kmh NNE 4.0 mph6.4 kmh 29.83 in1010.2 mb 0.00 in0.0 mm 0.00 in0.0 mm 0.01 in0.3 mm
07:55 PM 67.9°F19.9°C 61.9°F16.6°C 81% 2.0 mph N3.2 kmh N 3.0 mph4.8 kmh 29.83 in1010.2 mb 0.00 in0.0 mm 0.00 in0.0 mm 0.01 in0.3 mm
07:44 PM 68.4°F20.2°C 62.0°F16.7°C 80% 2.0 mph NNW3.2 kmh NNW 6.0 mph9.7 kmh 29.82 in1009.8 mb 0.00 in0.0 mm 0.00 in0.0 mm 0.01 in0.3 mm
07:35 PM 68.8°F20.4°C 62.4°F16.9°C 80% Calm Calm 5.0 mph8.0 kmh 29.82 in1009.8 mb 0.00 in0.0 mm 0.00 in0.0 mm 0.01 in0.3 mm
07:25 PM 69.6°F20.9°C 62.8°F17.1°C 79% 1.0 mph N1.6 kmh N 6.0 mph9.7 kmh 29.82 in1009.8 mb 0.00 in0.0 mm 0.00 in0.0 mm 0.01 in0.3 mm
07:15 PM 70.4°F21.3°C 63.2°F17.3°C 78% 5.0 mph NW8.0 kmh NW 6.0 mph9.7 kmh 29.81 in1009.5 mb 0.00 in0.0 mm 0.00 in0.0 mm 0.01 in0.3 mm
07:05 PM 70.9°F21.6°C 63.7°F17.6°C 78% 3.0 mph NNE4.8 kmh NNE 7.0 mph11.3 kmh 29.81 in1009.5 mb 0.00 in0.0 mm 0.00 in0.0 mm 0.01 in0.3 mm
06:55 PM 71.7°F22.1°C 63.7°F17.6°C 76% 8.0 mph NW12.9 kmh NW 8.0 mph12.9 kmh 29.81 in1009.5 mb 0.00 in0.0 mm 0.00 in0.0 mm 0.01 in0.3 mm
06:45 PM 73.0°F22.8°C 64.2°F17.9°C 74% 3.0 mph NW4.8 kmh NW 11.0 mph17.7 kmh 29.80 in1009.1 mb 0.00 in0.0 mm 0.00 in0.0 mm 0.01 in0.3 mm
06:35 PM 75.1°F23.9°C 65.1°F18.4°C 71% 4.0 mph NW6.4 kmh NW 7.0 mph11.3 kmh 29.79 in1008.8 mb 0.00 in0.0 mm 0.00 in0.0 mm 0.01 in0.3 mm
06:25 PM 78.0°F25.6°C 65.7°F18.7°C 66% 5.0 mph N8.0 kmh N 10.0 mph16.1 kmh 29.78 in1008.5 mb 0.00 in0.0 mm 0.00 in0.0 mm 0.01 in0.3 mm
06:14 PM 79.2°F26.2°C 64.1°F17.8°C 60% 3.0 mph W4.8 kmh W 8.0 mph12.9 kmh 29.76 in1007.8 mb 0.00 in0.0 mm 0.00 in0.0 mm 0.01 in0.3 mm
06:05 PM 79.3°F26.3°C 63.7°F17.6°C 59% 5.0 mph WNW8.0 kmh WNW 13.0 mph20.9 kmh 29.76 in1007.8 mb 0.00 in0.0 mm 0.00 in0.0 mm 0.01 in0.3 mm
05:55 PM 79.6°F26.4°C 63.5°F17.5°C 58% 10.0 mph W16.1 kmh W 12.0 mph19.3 kmh 29.76 in1007.8 mb 0.00 in0.0 mm 0.00 in0.0 mm 0.01 in0.3 mm
05:44 PM 79.9°F26.6°C 64.3°F17.9°C 59% 5.0 mph WNW8.0 kmh WNW 11.0 mph17.7 kmh 29.75 in1007.5 mb 0.00 in0.0 mm 0.00 in0.0 mm 0.01 in0.3 mm
05:35 PM 80.4°F26.9°C 64.8°F18.2°C 59% 6.0 mph SSW9.7 kmh SSW 11.0 mph17.7 kmh 29.75 in1007.5 mb 0.00 in0.0 mm 0.00 in0.0 mm 0.01 in0.3 mm
05:25 PM 80.5°F26.9°C 65.4°F18.6°C 60% 6.0 mph WSW9.7 kmh WSW 12.0 mph19.3 kmh 29.75 in1007.5 mb 0.00 in0.0 mm 0.00 in0.0 mm 0.01 in0.3 mm
05:15 PM 80.4°F26.9°C 65.7°F18.7°C 61% 1.0 mph W1.6 kmh W 12.0 mph19.3 kmh 29.75 in1007.5 mb 0.00 in0.0 mm 0.00 in0.0 mm 0.01 in0.3 mm
05:05 PM 80.8°F27.1°C 65.6°F18.7°C 60% 10.0 mph S16.1 kmh S 13.0 mph20.9 kmh 29.75 in1007.5 mb 0.00 in0.0 mm 0.00 in0.0 mm 0.01 in0.3 mm
04:55 PM 80.8°F27.1°C 65.2°F18.4°C 59% 6.0 mph WNW9.7 kmh WNW 18.0 mph29.0 kmh 29.75 in1007.5 mb 0.00 in0.0 mm 0.00 in0.0 mm 0.01 in0.3 mm
04:44 PM 81.4°F27.4°C 65.2°F18.4°C 58% 5.0 mph S8.0 kmh S 13.0 mph20.9 kmh 29.75 in1007.5 mb 0.00 in0.0 mm 0.00 in0.0 mm 0.01 in0.3 mm
04:34 PM 81.5°F27.5°C 64.8°F18.2°C 57% 11.0 mph S17.7 kmh S 16.0 mph25.7 kmh 29.75 in1007.5 mb 0.00 in0.0 mm 0.00 in0.0 mm 0.01 in0.3 mm
04:25 PM 81.5°F27.5°C 64.8°F18.2°C 57% 4.0 mph W6.4 kmh W 18.0 mph29.0 kmh 29.75 in1007.5 mb 0.00 in0.0 mm 0.00 in0.0 mm 0.01 in0.3 mm
04:15 PM 81.1°F27.3°C 66.4°F19.1°C 61% 8.0 mph S12.9 kmh S 11.0 mph17.7 kmh 29.74 in1007.1 mb 0.00 in0.0 mm 0.00 in0.0 mm 0.01 in0.3 mm
04:05 PM 79.3°F26.3°C 65.6°F18.7°C 63% 3.0 mph WSW4.8 kmh WSW 12.0 mph19.3 kmh 29.75 in1007.5 mb 0.00 in0.0 mm 0.00 in0.0 mm 0.01 in0.3 mm
03:55 PM 78.4°F25.8°C 65.2°F18.4°C 64% 12.0 mph S19.3 kmh S 12.0 mph19.3 kmh 29.75 in1007.5 mb 0.00 in0.0 mm 0.00 in0.0 mm 0.01 in0.3 mm
03:45 PM 78.7°F25.9°C 65.1°F18.4°C 63% 7.0 mph W11.3 kmh W 11.0 mph17.7 kmh 29.76 in1007.8 mb 0.00 in0.0 mm 0.00 in0.0 mm 0.01 in0.3 mm
03:34 PM 79.8°F26.6°C 65.2°F18.4°C 61% 5.0 mph WSW8.0 kmh WSW 12.0 mph19.3 kmh 29.76 in1007.8 mb 0.00 in0.0 mm 0.00 in0.0 mm 0.01 in0.3 mm
03:25 PM 80.9°F27.2°C 65.7°F18.7°C 60% 2.0 mph WSW3.2 kmh WSW 10.0 mph16.1 kmh 29.76 in1007.8 mb 0.00 in0.0 mm 0.00 in0.0 mm 0.01 in0.3 mm
03:14 PM 80.9°F27.2°C 66.2°F19.0°C 61% 6.0 mph SW9.7 kmh SW 9.0 mph14.5 kmh 29.77 in1008.1 mb 0.00 in0.0 mm 0.00 in0.0 mm 0.01 in0.3 mm
03:05 PM 80.8°F27.1°C 65.2°F18.4°C 59% 8.0 mph SW12.9 kmh SW 17.0 mph27.4 kmh 29.76 in1007.8 mb 0.00 in0.0 mm 0.00 in0.0 mm 0.01 in0.3 mm
02:55 PM 79.5°F26.4°C 64.9°F18.3°C 61% 3.0 mph W4.8 kmh W 10.0 mph16.1 kmh 29.77 in1008.1 mb 0.00 in0.0 mm 0.00 in0.0 mm 0.01 in0.3 mm
02:45 PM 79.6°F26.4°C 65.0°F18.3°C 61% 5.0 mph SW8.0 kmh SW 12.0 mph19.3 kmh 29.77 in1008.1 mb 0.00 in0.0 mm 0.00 in0.0 mm 0.01 in0.3 mm
02:34 PM 79.8°F26.6°C 65.2°F18.4°C 61% 5.0 mph SSW8.0 kmh SSW 17.0 mph27.4 kmh 29.77 in1008.1 mb 0.00 in0.0 mm 0.00 in0.0 mm 0.01 in0.3 mm
02:24 PM 80.0°F26.7°C 65.8°F18.8°C 62% 6.0 mph SSW9.7 kmh SSW 12.0 mph19.3 kmh 29.78 in1008.5 mb 0.00 in0.0 mm 0.00 in0.0 mm 0.01 in0.3 mm
02:15 PM 80.3°F26.8°C 65.6°F18.7°C 61% 3.0 mph S4.8 kmh S 19.0 mph30.6 kmh 29.78 in1008.5 mb 0.00 in0.0 mm 0.00 in0.0 mm 0.01 in0.3 mm
02:05 PM 80.0°F26.7°C 65.8°F18.8°C 62% 3.0 mph WSW4.8 kmh WSW 12.0 mph19.3 kmh 29.79 in1008.8 mb 0.00 in0.0 mm 0.00 in0.0 mm 0.01 in0.3 mm
01:55 PM 80.2°F26.8°C 65.5°F18.6°C 61% 6.0 mph SW9.7 kmh SW 12.0 mph19.3 kmh 29.80 in1009.1 mb 0.00 in0.0 mm 0.00 in0.0 mm 0.01 in0.3 mm
01:44 PM 79.6°F26.4°C 65.9°F18.8°C 63% 3.0 mph SW4.8 kmh SW 13.0 mph20.9 kmh 29.80 in1009.1 mb 0.00 in0.0 mm 0.00 in0.0 mm 0.01 in0.3 mm
01:35 PM 79.0°F26.1°C 65.8°F18.8°C 64% 11.0 mph S17.7 kmh S 17.0 mph27.4 kmh 29.82 in1009.8 mb 0.00 in0.0 mm 0.00 in0.0 mm 0.01 in0.3 mm
01:25 PM 79.8°F26.6°C 65.6°F18.7°C 62% 6.0 mph SW9.7 kmh SW 12.0 mph19.3 kmh 29.82 in1009.8 mb 0.00 in0.0 mm 0.00 in0.0 mm 0.01 in0.3 mm
01:15 PM 79.6°F26.4°C 66.4°F19.1°C 64% 4.0 mph S6.4 kmh S 14.0 mph22.5 kmh 29.81 in1009.5 mb 0.00 in0.0 mm 0.00 in0.0 mm 0.01 in0.3 mm
01:05 PM 78.8°F26.0°C 65.2°F18.4°C 63% 6.0 mph WSW9.7 kmh WSW 21.0 mph33.8 kmh 29.81 in1009.5 mb 0.00 in0.0 mm 0.00 in0.0 mm 0.01 in0.3 mm
12:55 PM 79.3°F26.3°C 65.6°F18.7°C 63% 3.0 mph SW4.8 kmh SW 18.0 mph29.0 kmh 29.82 in1009.8 mb 0.00 in0.0 mm 0.00 in0.0 mm 0.01 in0.3 mm
12:44 PM 78.9°F26.1°C 66.2°F19.0°C 65% 7.0 mph SSW11.3 kmh SSW 13.0 mph20.9 kmh 29.83 in1010.2 mb 0.00 in0.0 mm 0.00 in0.0 mm 0.01 in0.3 mm
12:34 PM 77.4°F25.2°C 65.6°F18.7°C 67% 6.0 mph SW9.7 kmh SW 16.0 mph25.7 kmh 29.83 in1010.2 mb 0.00 in0.0 mm 0.00 in0.0 mm 0.01 in0.3 mm
12:25 PM 76.5°F24.7°C 65.2°F18.4°C 68% 4.0 mph SW6.4 kmh SW 17.0 mph27.4 kmh 29.83 in1010.2 mb 0.00 in0.0 mm 0.00 in0.0 mm 0.01 in0.3 mm
12:14 PM 76.0°F24.4°C 65.1°F18.4°C 69% 10.0 mph S16.1 kmh S 17.0 mph27.4 kmh 29.83 in1010.2 mb 0.00 in0.0 mm 0.00 in0.0 mm 0.01 in0.3 mm
12:04 PM 76.0°F24.4°C 64.7°F18.2°C 68% 11.0 mph SW17.7 kmh SW 21.0 mph33.8 kmh 29.83 in1010.2 mb 0.00 in0.0 mm 0.00 in0.0 mm 0.01 in0.3 mm
11:55 AM 75.5°F24.2°C 65.0°F18.3°C 70% 4.0 mph SW6.4 kmh SW 13.0 mph20.9 kmh 29.84 in1010.5 mb 0.00 in0.0 mm 0.00 in0.0 mm 0.01 in0.3 mm
11:45 AM 74.7°F23.7°C 65.1°F18.4°C 72% 9.0 mph SW14.5 kmh SW 16.0 mph25.7 kmh 29.85 in1010.8 mb 0.00 in0.0 mm 0.00 in0.0 mm 0.01 in0.3 mm
11:35 AM 74.8°F23.8°C 65.2°F18.4°C 72% 6.0 mph SSW9.7 kmh SSW 7.0 mph11.3 kmh 29.85 in1010.8 mb 0.00 in0.0 mm 0.00 in0.0 mm 0.01 in0.3 mm
11:25 AM 74.6°F23.7°C 65.4°F18.6°C 73% 10.0 mph SSW16.1 kmh SSW 13.0 mph20.9 kmh 29.87 in1011.5 mb 0.00 in0.0 mm 0.00 in0.0 mm 0.01 in0.3 mm
11:15 AM 75.1°F23.9°C 65.5°F18.6°C 72% 1.0 mph S1.6 kmh S 15.0 mph24.1 kmh 29.88 in1011.9 mb 0.00 in0.0 mm 0.00 in0.0 mm 0.01 in0.3 mm
11:05 AM 74.8°F23.8°C 66.4°F19.1°C 75% 2.0 mph SSW3.2 kmh SSW 9.0 mph14.5 kmh 29.88 in1011.9 mb 0.00 in0.0 mm 0.00 in0.0 mm 0.01 in0.3 mm
10:55 AM 73.8°F23.2°C 66.9°F19.4°C 79% 4.0 mph S6.4 kmh S 10.0 mph16.1 kmh 29.88 in1011.9 mb 0.00 in0.0 mm 0.00 in0.0 mm 0.01 in0.3 mm
10:44 AM 71.9°F22.2°C 66.1°F18.9°C 82% 3.0 mph S4.8 kmh S 8.0 mph12.9 kmh 29.89 in1012.2 mb 0.00 in0.0 mm 0.00 in0.0 mm 0.01 in0.3 mm
10:35 AM 71.4°F21.9°C 65.3°F18.5°C 81% 2.0 mph SW3.2 kmh SW 5.0 mph8.0 kmh 29.89 in1012.2 mb 0.00 in0.0 mm 0.00 in0.0 mm 0.01 in0.3 mm
10:25 AM 71.5°F21.9°C 65.0°F18.3°C 80% Calm Calm 4.0 mph6.4 kmh 29.89 in1012.2 mb 0.00 in0.0 mm 0.00 in0.0 mm 0.01 in0.3 mm
10:15 AM 70.8°F21.6°C 64.7°F18.2°C 81% Calm Calm 7.0 mph11.3 kmh 29.90 in1012.5 mb 0.00 in0.0 mm 0.00 in0.0 mm 0.01 in0.3 mm
10:05 AM 69.9°F21.1°C 64.2°F17.9°C 82% 1.0 mph S1.6 kmh S 7.0 mph11.3 kmh 29.90 in1012.5 mb 0.00 in0.0 mm 0.00 in0.0 mm 0.01 in0.3 mm
09:55 AM 69.3°F20.7°C 63.6°F17.6°C 82% Calm Calm 7.0 mph11.3 kmh 29.90 in1012.5 mb 0.00 in0.0 mm 0.00 in0.0 mm 0.01 in0.3 mm
09:44 AM 68.5°F20.3°C 62.8°F17.1°C 82% Calm Calm 6.0 mph9.7 kmh 29.90 in1012.5 mb 0.00 in0.0 mm 0.00 in0.0 mm 0.01 in0.3 mm
09:35 AM 67.5°F19.7°C 62.2°F16.8°C 83% Calm Calm 3.0 mph4.8 kmh 29.90 in1012.5 mb 0.00 in0.0 mm 0.00 in0.0 mm 0.01 in0.3 mm
09:24 AM 66.6°F19.2°C 60.9°F16.1°C 82% Calm Calm 1.0 mph1.6 kmh 29.90 in1012.5 mb 0.00 in0.0 mm 0.00 in0.0 mm 0.01 in0.3 mm
09:15 AM 65.9°F18.8°C 59.9°F15.5°C 81% Calm Calm -- 29.90 in1012.5 mb 0.00 in0.0 mm 0.00 in0.0 mm 0.01 in0.3 mm
09:04 AM 65.5°F18.6°C 59.5°F15.3°C 81% Calm Calm -- 29.89 in1012.2 mb 0.00 in0.0 mm 0.00 in0.0 mm 0.01 in0.3 mm
08:54 AM 65.0°F18.3°C 58.3°F14.6°C 79% 1.0 mph S1.6 kmh S 1.0 mph1.6 kmh 29.89 in1012.2 mb 0.00 in0.0 mm 0.00 in0.0 mm 0.01 in0.3 mm
08:45 AM 64.5°F18.1°C 57.9°F14.4°C 79% Calm Calm 2.0 mph3.2 kmh 29.89 in1012.2 mb 0.00 in0.0 mm 0.00 in0.0 mm 0.01 in0.3 mm
08:34 AM 64.1°F17.8°C 58.2°F14.6°C 81% Calm Calm 2.0 mph3.2 kmh 29.89 in1012.2 mb 0.00 in0.0 mm 0.00 in0.0 mm 0.01 in0.3 mm
08:24 AM 63.7°F17.6°C 57.4°F14.1°C 80% Calm Calm 1.0 mph1.6 kmh 29.89 in1012.2 mb 0.00 in0.0 mm 0.00 in0.0 mm 0.01 in0.3 mm
08:14 AM 63.3°F17.4°C 57.4°F14.1°C 81% Calm Calm -- 29.88 in1011.9 mb 0.00 in0.0 mm 0.00 in0.0 mm 0.01 in0.3 mm
08:05 AM 63.2°F17.3°C 57.3°F14.1°C 81% Calm Calm -- 29.89 in1012.2 mb 0.00 in0.0 mm 0.00 in0.0 mm 0.01 in0.3 mm
07:55 AM 63.1°F17.3°C 57.2°F14.0°C 81% Calm Calm 2.0 mph3.2 kmh 29.89 in1012.2 mb 0.00 in0.0 mm 0.00 in0.0 mm 0.01 in0.3 mm
07:44 AM 63.0°F17.2°C 56.7°F13.7°C 80% Calm Calm 1.0 mph1.6 kmh 29.89 in1012.2 mb 0.00 in0.0 mm 0.00 in0.0 mm 0.01 in0.3 mm
07:35 AM 63.1°F17.3°C 56.8°F13.8°C 80% Calm Calm -- 29.89 in1012.2 mb 0.00 in0.0 mm 0.00 in0.0 mm 0.01 in0.3 mm
07:25 AM 63.3°F17.4°C 56.7°F13.7°C 79% Calm Calm 1.0 mph1.6 kmh 29.89 in1012.2 mb 0.01 in0.3 mm 0.00 in0.0 mm 0.01 in0.3 mm
07:14 AM 63.6°F17.6°C 57.0°F13.9°C 79% Calm Calm 2.0 mph3.2 kmh 29.88 in1011.9 mb 0.01 in0.3 mm 0.00 in0.0 mm 0.01 in0.3 mm
07:05 AM 64.1°F17.8°C 57.1°F13.9°C 78% Calm Calm 2.0 mph3.2 kmh 29.87 in1011.5 mb 0.01 in0.3 mm 0.00 in0.0 mm 0.01 in0.3 mm
06:54 AM 64.3°F17.9°C 57.0°F13.9°C 77% Calm Calm -- 29.87 in1011.5 mb 0.01 in0.3 mm 0.00 in0.0 mm 0.01 in0.3 mm
06:45 AM 64.8°F18.2°C 57.4°F14.1°C 77% 3.0 mph SSW4.8 kmh SSW 5.0 mph8.0 kmh 29.91 in1012.9 mb 0.01 in0.3 mm 0.00 in0.0 mm 0.01 in0.3 mm
06:34 AM 65.6°F18.7°C 57.8°F14.3°C 76% Calm Calm 10.0 mph16.1 kmh 29.93 in1013.5 mb 0.01 in0.3 mm 0.06 in1.5 mm 0.01 in0.3 mm
06:24 AM 66.6°F19.2°C 57.7°F14.3°C 73% 2.0 mph WNW3.2 kmh WNW 6.0 mph9.7 kmh 29.93 in1013.5 mb 0.00 in0.0 mm 0.00 in0.0 mm 0.00 in0.0 mm
06:14 AM 67.4°F19.7°C 58.1°F14.5°C 72% 1.0 mph WSW1.6 kmh WSW 10.0 mph16.1 kmh 29.93 in1013.5 mb 0.00 in0.0 mm 0.00 in0.0 mm 0.00 in0.0 mm
06:04 AM 68.8°F20.4°C 60.6°F15.9°C 75% 6.0 mph WSW9.7 kmh WSW 11.0 mph17.7 kmh 29.92 in1013.2 mb 0.00 in0.0 mm 0.00 in0.0 mm 0.00 in0.0 mm
05:54 AM 68.9°F20.5°C 62.1°F16.7°C 79% 5.0 mph SSW8.0 kmh SSW 17.0 mph27.4 kmh 29.90 in1012.5 mb 0.00 in0.0 mm 0.00 in0.0 mm 0.00 in0.0 mm
05:45 AM 68.0°F20.0°C 61.6°F16.4°C 80% 5.0 mph SSW8.0 kmh SSW 12.0 mph19.3 kmh 29.91 in1012.9 mb 0.00 in0.0 mm 0.00 in0.0 mm 0.00 in0.0 mm
05:34 AM 67.6°F19.8°C 61.6°F16.4°C 81% Calm Calm 4.0 mph6.4 kmh 29.91 in1012.9 mb 0.00 in0.0 mm 0.00 in0.0 mm 0.00 in0.0 mm
05:25 AM 67.7°F19.8°C 61.7°F16.5°C 81% Calm Calm 7.0 mph11.3 kmh 29.90 in1012.5 mb 0.00 in0.0 mm 0.00 in0.0 mm 0.00 in0.0 mm
05:15 AM 67.6°F19.8°C 61.6°F16.4°C 81% 4.0 mph SSW6.4 kmh SSW 7.0 mph11.3 kmh 29.89 in1012.2 mb 0.00 in0.0 mm 0.00 in0.0 mm 0.00 in0.0 mm
05:05 AM 67.4°F19.7°C 61.4°F16.3°C 81% 6.0 mph SW9.7 kmh SW 9.0 mph14.5 kmh 29.89 in1012.2 mb 0.00 in0.0 mm 0.00 in0.0 mm 0.00 in0.0 mm
04:55 AM 67.1°F19.5°C 61.1°F16.2°C 81% Calm Calm 11.0 mph17.7 kmh 29.89 in1012.2 mb 0.00 in0.0 mm 0.00 in0.0 mm 0.00 in0.0 mm
04:44 AM 66.6°F19.2°C 60.3°F15.7°C 80% Calm Calm 8.0 mph12.9 kmh 29.89 in1012.2 mb 0.00 in0.0 mm 0.00 in0.0 mm 0.00 in0.0 mm
04:35 AM 66.2°F19.0°C 59.9°F15.5°C 80% 2.0 mph S3.2 kmh S 6.0 mph9.7 kmh 29.89 in1012.2 mb 0.00 in0.0 mm 0.00 in0.0 mm 0.00 in0.0 mm
04:25 AM 65.8°F18.8°C 59.1°F15.1°C 79% 2.0 mph SW3.2 kmh SW 5.0 mph8.0 kmh 29.88 in1011.9 mb 0.00 in0.0 mm 0.00 in0.0 mm 0.00 in0.0 mm
04:15 AM 65.1°F18.4°C 58.8°F14.9°C 80% 5.0 mph S8.0 kmh S 6.0 mph9.7 kmh 29.88 in1011.9 mb 0.00 in0.0 mm 0.00 in0.0 mm 0.00 in0.0 mm
04:05 AM 64.3°F17.9°C 58.0°F14.4°C 80% 2.0 mph SW3.2 kmh SW 6.0 mph9.7 kmh 29.88 in1011.9 mb 0.00 in0.0 mm 0.00 in0.0 mm 0.00 in0.0 mm
03:54 AM 63.3°F17.4°C 57.0°F13.9°C 80% Calm Calm 6.0 mph9.7 kmh 29.88 in1011.9 mb 0.00 in0.0 mm 0.00 in0.0 mm 0.00 in0.0 mm
03:45 AM 62.3°F16.8°C 56.7°F13.7°C 82% 3.0 mph SE4.8 kmh SE 4.0 mph6.4 kmh 29.88 in1011.9 mb 0.00 in0.0 mm 0.00 in0.0 mm 0.00 in0.0 mm
03:35 AM 60.9°F16.1°C 56.4°F13.6°C 85% Calm Calm 4.0 mph6.4 kmh 29.88 in1011.9 mb 0.00 in0.0 mm 0.00 in0.0 mm 0.00 in0.0 mm
03:25 AM 58.7°F14.8°C 55.8°F13.2°C 90% 4.0 mph ESE6.4 kmh ESE 4.0 mph6.4 kmh 29.88 in1011.9 mb 0.00 in0.0 mm 0.00 in0.0 mm 0.00 in0.0 mm
03:15 AM 57.8°F14.3°C 54.9°F12.7°C 90% 1.0 mph SE1.6 kmh SE 3.0 mph4.8 kmh 29.88 in1011.9 mb 0.00 in0.0 mm 0.00 in0.0 mm 0.00 in0.0 mm
03:05 AM 57.5°F14.2°C 54.6°F12.6°C 90% Calm Calm -- 29.88 in1011.9 mb 0.00 in0.0 mm 0.00 in0.0 mm 0.00 in0.0 mm
02:55 AM 57.4°F14.1°C 54.5°F12.5°C 90% Calm Calm -- 29.87 in1011.5 mb 0.00 in0.0 mm 0.00 in0.0 mm 0.00 in0.0 mm
02:45 AM 57.3°F14.1°C 54.4°F12.4°C 90% Calm Calm -- 29.88 in1011.9 mb 0.00 in0.0 mm 0.00 in0.0 mm 0.00 in0.0 mm
02:35 AM 57.3°F14.1°C 54.4°F12.4°C 90% Calm Calm -- 29.89 in1012.2 mb 0.00 in0.0 mm 0.00 in0.0 mm 0.00 in0.0 mm
02:25 AM 57.4°F14.1°C 54.5°F12.5°C 90% Calm Calm -- 29.90 in1012.5 mb 0.00 in0.0 mm 0.00 in0.0 mm 0.00 in0.0 mm
02:14 AM 57.4°F14.1°C 54.2°F12.3°C 89% Calm Calm -- 29.90 in1012.5 mb 0.00 in0.0 mm 0.00 in0.0 mm 0.00 in0.0 mm
02:05 AM 57.4°F14.1°C 54.2°F12.3°C 89% Calm Calm -- 29.90 in1012.5 mb 0.00 in0.0 mm 0.00 in0.0 mm 0.00 in0.0 mm
01:55 AM 57.4°F14.1°C 54.2°F12.3°C 89% Calm Calm -- 29.90 in1012.5 mb 0.00 in0.0 mm 0.00 in0.0 mm 0.00 in0.0 mm
01:44 AM 57.4°F14.1°C 54.2°F12.3°C 89% Calm Calm -- 29.90 in1012.5 mb 0.00 in0.0 mm 0.00 in0.0 mm 0.00 in0.0 mm
01:35 AM 57.4°F14.1°C 54.2°F12.3°C 89% Calm Calm -- 29.91 in1012.9 mb 0.00 in0.0 mm 0.00 in0.0 mm 0.00 in0.0 mm
01:25 AM 57.4°F14.1°C 54.2°F12.3°C 89% Calm Calm -- 29.91 in1012.9 mb 0.00 in0.0 mm 0.00 in0.0 mm 0.00 in0.0 mm
01:15 AM 57.5°F14.2°C 54.3°F12.4°C 89% Calm Calm -- 29.91 in1012.9 mb 0.00 in0.0 mm 0.00 in0.0 mm 0.00 in0.0 mm
01:05 AM 57.6°F14.2°C 54.4°F12.4°C 89% Calm Calm -- 29.91 in1012.9 mb 0.00 in0.0 mm 0.00 in0.0 mm 0.00 in0.0 mm
12:55 AM 57.6°F14.2°C 54.4°F12.4°C 89% Calm Calm -- 29.92 in1013.2 mb 0.00 in0.0 mm 0.00 in0.0 mm 0.00 in0.0 mm
12:45 AM 57.6°F14.2°C 54.1°F12.3°C 88% Calm Calm -- 29.92 in1013.2 mb 0.00 in0.0 mm 0.00 in0.0 mm 0.00 in0.0 mm
12:34 AM 57.7°F14.3°C 53.9°F12.2°C 87% Calm Calm -- 29.92 in1013.2 mb 0.00 in0.0 mm 0.00 in0.0 mm 0.00 in0.0 mm
12:25 AM 57.8°F14.3°C 54.0°F12.2°C 87% Calm Calm -- 29.93 in1013.5 mb 0.00 in0.0 mm 0.00 in0.0 mm 0.00 in0.0 mm
12:14 AM 58.0°F14.4°C 53.8°F12.1°C 86% Calm Calm -- 29.93 in1013.5 mb 0.00 in0.0 mm 0.00 in0.0 mm 0.00 in0.0 mm
12:05 AM 58.1°F14.5°C 53.9°F12.2°C 86% Calm Calm -- 29.93 in1013.5 mb 0.00 in0.0 mm 0.00 in0.0 mm 0.00 in0.0 mm